createdAt,value
2018-12-11T00:01:51.238Z,9.58
2018-12-11T00:04:20.689Z,10.20
2018-12-11T00:06:51.776Z,11.78
2018-12-11T00:09:20.207Z,12.70
2018-12-11T00:11:48.436Z,9.85
2018-12-11T00:14:16.668Z,9.00
2018-12-11T00:16:45.652Z,12.90
2018-12-11T00:19:15.938Z,10.08
2018-12-11T00:21:44.232Z,8.80
2018-12-11T00:24:14.739Z,8.00
2018-12-11T00:26:43.148Z,14.18
2018-12-11T00:29:11.482Z,9.15
2018-12-11T00:31:39.897Z,8.18
2018-12-11T00:34:08.285Z,9.25
2018-12-11T00:36:36.555Z,9.43
2018-12-11T00:39:07.067Z,10.80
2018-12-11T00:41:35.343Z,9.80
2018-12-11T00:44:03.779Z,14.85
2018-12-11T00:46:32.089Z,8.85
2018-12-11T00:49:00.263Z,8.58
2018-12-11T00:51:28.677Z,11.77
2018-12-11T00:53:56.854Z,10.98
2018-12-11T00:56:25.190Z,11.80
2018-12-11T00:58:53.403Z,12.20
2018-12-11T01:01:21.762Z,11.33
2018-12-11T01:03:50.063Z,15.78
2018-12-11T01:06:20.317Z,15.15
2018-12-11T01:08:48.691Z,12.05
2018-12-11T01:11:16.962Z,8.65
2018-12-11T01:13:45.292Z,12.50
2018-12-11T01:16:13.756Z,12.47
2018-12-11T01:18:42.000Z,12.07
2018-12-11T01:21:10.284Z,12.65
2018-12-11T01:23:38.694Z,12.30
2018-12-11T01:26:07.067Z,10.23
2018-12-11T01:28:35.349Z,11.20
2018-12-11T01:31:03.884Z,9.30
2018-12-11T01:33:32.116Z,9.00
2018-12-11T01:36:00.378Z,8.20
2018-12-11T01:38:28.683Z,9.60
2018-12-11T01:40:56.978Z,11.28
2018-12-11T01:43:25.197Z,10.40
2018-12-11T01:45:53.450Z,12.88
2018-12-11T01:48:21.781Z,9.13
2018-12-11T01:50:50.161Z,13.40
2018-12-11T01:53:18.472Z,12.20
2018-12-11T01:55:46.830Z,21.05
2018-12-11T01:58:15.121Z,15.70
2018-12-11T02:00:43.433Z,9.40
2018-12-11T02:03:11.714Z,9.98
2018-12-11T02:05:39.986Z,10.40
2018-12-11T02:08:08.184Z,9.73
2018-12-11T02:10:36.475Z,14.05
2018-12-11T02:13:04.774Z,12.93
2018-12-11T02:15:33.112Z,14.45
2018-12-11T02:18:01.456Z,16.23
2018-12-11T02:20:29.682Z,12.82
2018-12-11T02:22:57.908Z,13.03
2018-12-11T02:25:26.332Z,10.05
2018-12-11T02:27:54.692Z,14.50
2018-12-11T02:30:22.933Z,19.57
2018-12-11T02:32:51.236Z,13.28
2018-12-11T02:35:19.608Z,14.50
2018-12-11T02:37:47.815Z,15.28
2018-12-11T02:40:16.097Z,12.98
2018-12-11T02:42:44.453Z,9.55
2018-12-11T02:45:12.798Z,17.87
2018-12-11T02:47:40.986Z,15.83
2018-12-11T02:50:09.491Z,13.60
2018-12-11T02:52:37.787Z,10.53
2018-12-11T02:55:06.346Z,18.50
2018-12-11T02:57:34.539Z,13.90
2018-12-11T03:00:03.102Z,11.97
2018-12-11T03:02:31.478Z,17.35
2018-12-11T03:04:59.693Z,13.15
2018-12-11T03:07:27.993Z,11.85
2018-12-11T03:09:56.268Z,17.67
2018-12-11T03:12:24.565Z,9.25
2018-12-11T03:14:52.774Z,11.48
2018-12-11T03:17:21.134Z,12.75
2018-12-11T03:19:49.495Z,14.10
2018-12-11T03:22:17.790Z,14.25
2018-12-11T03:24:46.270Z,12.17
2018-12-11T03:27:14.471Z,15.58
2018-12-11T03:29:42.706Z,16.42
2018-12-11T03:32:10.879Z,14.07
2018-12-11T03:34:39.122Z,10.15
2018-12-11T03:37:07.477Z,13.77
2018-12-11T03:39:35.714Z,14.63
2018-12-11T03:42:04.123Z,10.90
2018-12-11T03:44:32.542Z,15.83
2018-12-11T03:47:00.826Z,13.50
2018-12-11T03:49:29.080Z,8.68
2018-12-11T03:51:57.365Z,10.72
2018-12-11T03:54:25.624Z,12.93
2018-12-11T03:56:53.887Z,12.75
2018-12-11T03:59:22.258Z,16.35
2018-12-11T04:01:50.516Z,16.52
2018-12-11T04:04:18.776Z,14.07
2018-12-11T04:06:46.988Z,10.50
2018-12-11T04:09:15.252Z,12.73
2018-12-11T04:11:43.566Z,12.50
2018-12-11T04:14:12.010Z,14.20
2018-12-11T04:16:40.284Z,14.63
2018-12-11T04:19:08.563Z,12.60
2018-12-11T04:21:36.836Z,10.15
2018-12-11T04:24:05.100Z,13.43
2018-12-11T04:26:33.327Z,14.80
2018-12-11T04:29:01.583Z,11.85
2018-12-11T04:31:29.898Z,13.03
2018-12-11T04:33:58.159Z,14.43
2018-12-11T04:36:26.368Z,12.05
2018-12-11T04:38:54.621Z,10.30
2018-12-11T04:41:23.039Z,12.37
2018-12-11T04:43:51.322Z,11.65
2018-12-11T04:46:19.550Z,13.98
2018-12-11T04:48:47.748Z,14.95
2018-12-11T04:51:16.067Z,10.10
2018-12-11T04:53:44.290Z,10.72
2018-12-11T04:56:12.714Z,15.83
2018-12-11T04:58:40.999Z,12.47
2018-12-11T05:01:09.299Z,15.00
2018-12-11T05:03:37.558Z,8.78
2018-12-11T05:06:05.937Z,15.72
2018-12-11T05:08:34.213Z,14.68
2018-12-11T05:11:02.679Z,9.88
2018-12-11T05:13:31.165Z,11.15
2018-12-11T05:15:59.578Z,14.35
2018-12-11T05:18:27.841Z,15.35
2018-12-11T05:20:56.147Z,15.88
2018-12-11T05:23:24.517Z,11.70
2018-12-11T05:25:52.867Z,11.12
2018-12-11T05:28:21.208Z,9.08
2018-12-11T05:30:49.623Z,10.40
2018-12-11T05:33:17.963Z,10.40
2018-12-11T05:35:46.350Z,9.18
2018-12-11T05:38:14.632Z,8.08
2018-12-11T05:40:42.944Z,9.43
2018-12-11T05:43:11.357Z,9.28
2018-12-11T05:45:39.678Z,11.88
2018-12-11T05:48:09.995Z,12.40
2018-12-11T05:50:38.255Z,9.60
2018-12-11T05:53:06.585Z,7.90
2018-12-11T05:55:34.926Z,6.87
2018-12-11T05:58:03.210Z,9.00
2018-12-11T06:00:31.498Z,7.90
2018-12-11T06:02:59.757Z,11.93
2018-12-11T06:05:28.083Z,9.80
2018-12-11T06:07:56.398Z,7.97
2018-12-11T06:10:24.669Z,9.97
2018-12-11T06:12:52.927Z,7.90
2018-12-11T06:15:21.288Z,8.33
2018-12-11T06:17:49.616Z,6.42
2018-12-11T06:20:17.962Z,8.03
2018-12-11T06:22:46.213Z,4.87
2018-12-11T06:25:14.460Z,7.35
2018-12-11T06:27:42.701Z,6.47
2018-12-11T06:30:11.043Z,3.42
2018-12-11T06:32:39.396Z,4.37
2018-12-11T06:35:07.732Z,5.40
2018-12-11T06:37:36.050Z,2.83
2018-12-11T06:40:04.850Z,7.42
2018-12-11T06:42:33.230Z,7.55
2018-12-11T06:45:01.557Z,5.10
2018-12-11T06:47:29.872Z,6.40
2018-12-11T06:49:58.181Z,5.12
2018-12-11T06:52:26.453Z,6.87
2018-12-11T06:54:54.707Z,6.87
2018-12-11T06:57:22.978Z,3.12
2018-12-11T06:59:51.177Z,4.42
2018-12-11T07:02:19.507Z,9.77
2018-12-11T07:04:47.962Z,5.60
2018-12-11T07:07:16.245Z,5.72
2018-12-11T07:09:45.348Z,4.30
2018-12-11T07:12:13.611Z,6.05
2018-12-11T07:14:41.834Z,5.20
2018-12-11T07:17:10.169Z,7.17
2018-12-11T07:19:38.426Z,4.57
2018-12-11T07:22:06.880Z,5.60
2018-12-11T07:24:35.230Z,7.80
2018-12-11T07:27:03.748Z,6.35
2018-12-11T07:29:33.398Z,6.28
2018-12-11T07:32:01.648Z,3.70
2018-12-11T07:34:29.880Z,5.30
2018-12-11T07:36:58.151Z,6.30
2018-12-11T07:39:26.677Z,5.15
2018-12-11T07:41:54.916Z,4.15
2018-12-11T07:44:23.162Z,5.28
2018-12-11T07:46:51.449Z,6.53
2018-12-11T07:49:19.726Z,3.77
2018-12-11T07:51:48.083Z,3.35
2018-12-11T07:54:16.329Z,4.80
2018-12-11T07:56:44.625Z,3.85
2018-12-11T07:59:12.911Z,1.80
2018-12-11T08:01:41.374Z,1.87
2018-12-11T08:04:09.619Z,1.60
2018-12-11T08:06:38.079Z,2.90
2018-12-11T08:09:07.457Z,2.02
2018-12-11T08:11:35.723Z,1.57
2018-12-11T08:14:04.009Z,2.10
2018-12-11T08:16:32.713Z,1.87
2018-12-11T08:19:01.226Z,1.92
2018-12-11T08:21:29.530Z,1.98
2018-12-11T08:23:57.769Z,1.57
2018-12-11T08:26:26.268Z,1.30
2018-12-11T08:28:54.569Z,2.10
2018-12-11T08:31:22.812Z,2.00
2018-12-11T08:33:51.047Z,1.98
2018-12-11T08:36:19.524Z,1.82
2018-12-11T08:38:47.842Z,3.20
2018-12-11T08:41:17.482Z,2.08
2018-12-11T08:43:45.791Z,1.62
2018-12-11T08:46:14.149Z,1.10
2018-12-11T08:48:42.477Z,1.20
2018-12-11T08:51:10.874Z,2.00
2018-12-11T08:53:39.308Z,3.00
2018-12-11T08:56:07.546Z,1.98
2018-12-11T08:58:35.887Z,1.52
2018-12-11T09:01:04.331Z,2.10
2018-12-11T09:03:32.551Z,3.08
2018-12-11T09:06:00.860Z,1.60
2018-12-11T09:08:29.153Z,1.50
2018-12-11T09:10:57.459Z,3.35
2018-12-11T09:13:25.683Z,1.80
2018-12-11T09:15:53.925Z,1.30
2018-12-11T09:18:22.143Z,2.35
2018-12-11T09:20:50.387Z,2.90
2018-12-11T09:23:18.798Z,1.40
2018-12-11T09:25:47.066Z,5.22
2018-12-11T09:28:15.405Z,4.15
2018-12-11T09:30:43.689Z,2.50
2018-12-11T09:33:11.994Z,2.60
2018-12-11T09:52:56.510Z,2.90
2018-12-11T09:55:24.813Z,2.50
2018-12-11T09:57:53.082Z,2.80
2018-12-11T10:00:25.774Z,2.80
2018-12-11T10:02:51.738Z,1.80
2018-12-11T10:05:20.054Z,1.85
2018-12-11T10:07:48.398Z,2.62
2018-12-11T10:10:16.617Z,2.60
2018-12-11T10:12:44.983Z,1.77
2018-12-11T10:15:13.469Z,2.60
2018-12-11T10:17:41.759Z,3.50
2018-12-11T10:20:10.623Z,5.08
2018-12-11T10:22:38.981Z,2.42
2018-12-11T10:25:07.790Z,2.65
2018-12-11T10:27:36.153Z,2.87
2018-12-11T10:30:06.160Z,2.57
2018-12-11T10:32:34.508Z,3.22
2018-12-11T10:35:02.902Z,3.30
2018-12-11T10:37:31.205Z,2.35
2018-12-11T10:39:59.497Z,1.80
2018-12-11T10:42:27.716Z,3.40
2018-12-11T10:44:56.042Z,2.20
2018-12-11T10:47:24.406Z,1.82
2018-12-11T10:49:52.966Z,1.95
2018-12-11T10:52:21.224Z,3.30
2018-12-11T10:54:49.555Z,3.00
2018-12-11T10:57:17.944Z,2.52
2018-12-11T10:59:46.317Z,1.90
2018-12-11T11:02:20.026Z,2.10
2018-12-11T11:04:48.270Z,2.47
2018-12-11T11:07:16.645Z,2.55
2018-12-11T11:09:46.587Z,2.45
2018-12-11T11:12:15.183Z,2.62
2018-12-11T11:14:43.512Z,3.35
2018-12-11T11:17:12.006Z,2.05
2018-12-11T11:19:40.312Z,4.50
2018-12-11T11:22:08.970Z,1.90
2018-12-11T11:24:37.325Z,2.65
2018-12-11T11:27:05.781Z,4.00
2018-12-11T11:29:34.146Z,2.10
2018-12-11T11:32:02.461Z,1.63
2018-12-11T11:34:39.774Z,1.90
2018-12-11T11:37:08.305Z,1.87
2018-12-11T11:39:36.698Z,1.50
2018-12-11T11:42:05.074Z,1.80
2018-12-11T11:44:33.386Z,1.77
2018-12-11T11:47:01.629Z,1.80
2018-12-11T11:49:29.956Z,2.10
2018-12-11T11:51:58.203Z,1.50
2018-12-11T11:54:26.537Z,2.00
2018-12-11T11:56:54.876Z,3.10
2018-12-11T11:59:23.634Z,3.80
2018-12-11T12:01:51.953Z,1.20
2018-12-11T12:04:20.290Z,1.70
2018-12-11T12:06:48.553Z,1.30
2018-12-11T12:09:16.947Z,1.30
2018-12-11T12:11:45.274Z,1.75
2018-12-11T12:14:13.641Z,1.85
2018-12-11T12:16:42.506Z,1.80
2018-12-11T12:19:10.718Z,1.47
2018-12-11T12:21:38.930Z,1.45
2018-12-11T12:24:07.238Z,2.00
2018-12-11T12:26:35.586Z,1.60
2018-12-11T12:29:04.007Z,1.60
2018-12-11T12:31:32.367Z,1.20
2018-12-11T12:34:00.727Z,1.32
2018-12-11T12:36:29.037Z,1.40
2018-12-11T12:38:57.261Z,1.60
2018-12-11T12:41:25.852Z,2.30
2018-12-11T12:43:54.138Z,1.60
2018-12-11T12:46:22.439Z,3.15
2018-12-11T12:48:50.744Z,1.50
2018-12-11T12:51:19.059Z,1.50
2018-12-11T12:53:47.283Z,15.90
2018-12-11T12:56:15.551Z,2.52
2018-12-11T12:58:43.846Z,1.40
2018-12-11T13:01:12.173Z,1.50
2018-12-11T13:03:40.829Z,2.10
2018-12-11T13:06:09.131Z,1.70
2018-12-11T13:08:37.367Z,1.70
2018-12-11T13:11:05.839Z,5.78
2018-12-11T13:13:34.073Z,4.23
2018-12-11T13:16:02.474Z,2.10
2018-12-11T13:18:30.806Z,1.77
2018-12-11T13:20:59.193Z,2.25
2018-12-11T13:23:27.621Z,2.00
2018-12-11T13:25:55.864Z,2.37
2018-12-11T13:28:24.233Z,2.00
2018-12-11T13:30:52.579Z,2.20
2018-12-11T13:33:20.884Z,2.47
2018-12-11T13:35:49.242Z,2.55
2018-12-11T13:38:17.607Z,2.80
2018-12-11T13:40:47.201Z,9.33
2018-12-11T13:43:15.463Z,4.78
2018-12-11T13:45:44.136Z,3.40
2018-12-11T13:48:12.586Z,3.25
2018-12-11T13:50:40.977Z,4.50
2018-12-11T13:53:09.282Z,5.00
2018-12-11T13:55:37.573Z,4.25
2018-12-11T13:58:05.898Z,3.85
2018-12-11T14:00:34.187Z,4.40
2018-12-11T14:03:02.450Z,3.72
2018-12-11T14:05:30.682Z,3.90
2018-12-11T14:07:59.002Z,4.83
2018-12-11T14:10:27.259Z,5.50
2018-12-11T14:12:55.539Z,5.58
2018-12-11T14:15:23.916Z,7.62
2018-12-11T14:17:52.159Z,3.35
2018-12-11T14:20:20.515Z,3.50
2018-12-11T14:22:48.775Z,4.40
2018-12-11T14:25:17.165Z,5.22
2018-12-11T14:27:45.431Z,3.30
2018-12-11T14:30:13.895Z,3.65
2018-12-11T14:32:42.138Z,3.42
2018-12-11T14:35:10.564Z,4.92
2018-12-11T14:37:38.778Z,3.00
2018-12-11T14:40:07.516Z,4.30
2018-12-11T14:42:35.790Z,3.40
2018-12-11T14:45:09.926Z,3.15
2018-12-11T14:47:39.591Z,3.90
2018-12-11T14:50:11.790Z,3.10
2018-12-11T14:52:43.439Z,4.00
2018-12-11T14:55:14.929Z,4.50
2018-12-11T14:57:46.380Z,4.28
2018-12-11T15:00:16.970Z,3.08
2018-12-11T15:02:49.236Z,4.12
2018-12-11T15:05:19.607Z,3.02
2018-12-11T15:07:48.994Z,3.25
2018-12-11T15:10:22.569Z,3.85
2018-12-11T15:12:53.335Z,2.77
2018-12-11T15:15:28.307Z,4.95
2018-12-11T15:17:58.867Z,3.80
2018-12-11T15:20:31.444Z,4.60
2018-12-11T15:23:01.159Z,5.03
2018-12-11T15:25:30.597Z,4.22
2018-12-11T15:28:02.299Z,3.55
2018-12-11T15:30:32.435Z,4.78
2018-12-11T15:33:03.431Z,4.55
2018-12-11T15:35:32.194Z,3.05
2018-12-11T15:38:02.069Z,2.80
2018-12-11T15:40:31.908Z,3.72
2018-12-11T15:43:02.193Z,3.67
2018-12-11T15:45:31.147Z,3.50
2018-12-11T15:48:00.684Z,3.10
2018-12-11T15:50:32.593Z,5.05
2018-12-11T15:53:00.972Z,3.77
2018-12-11T15:55:29.294Z,3.52
2018-12-11T15:57:57.553Z,3.17
2018-12-11T16:00:25.747Z,4.17
2018-12-11T16:02:54.181Z,4.00
2018-12-11T16:05:22.468Z,9.28
2018-12-11T16:07:50.826Z,2.83
2018-12-11T16:10:19.162Z,4.50
2018-12-11T16:12:47.459Z,3.85
2018-12-11T16:15:15.717Z,2.62
2018-12-11T16:17:43.954Z,2.67
2018-12-11T16:20:12.316Z,3.05
2018-12-11T16:22:40.558Z,1.95
2018-12-11T16:25:08.882Z,2.60
2018-12-11T16:27:37.366Z,2.52
2018-12-11T16:30:06.048Z,3.02
2018-12-11T16:32:34.316Z,2.60
2018-12-11T16:35:02.719Z,3.00
2018-12-11T16:37:31.294Z,3.20
2018-12-11T16:40:04.493Z,2.90
2018-12-11T16:42:30.139Z,2.50
2018-12-11T16:44:58.401Z,2.90
2018-12-11T16:47:26.745Z,2.92
2018-12-11T16:49:55.268Z,2.60
2018-12-11T16:52:23.668Z,3.67
2018-12-11T16:54:51.980Z,2.83
2018-12-11T16:57:20.531Z,2.60
2018-12-11T16:59:48.841Z,2.80
2018-12-11T17:02:17.095Z,2.70
2018-12-11T17:04:45.407Z,3.02
2018-12-11T17:07:14.098Z,2.87
2018-12-11T17:09:43.649Z,3.10
2018-12-11T17:12:12.985Z,3.25
2018-12-11T17:14:41.346Z,3.00
2018-12-11T17:17:09.650Z,2.80
2018-12-11T17:19:39.140Z,3.90
2018-12-11T17:22:07.570Z,4.42
2018-12-11T17:24:35.891Z,3.92
2018-12-11T17:27:04.463Z,3.60
2018-12-11T17:29:32.791Z,4.92
2018-12-11T17:32:01.052Z,2.80
2018-12-11T17:34:29.249Z,3.10
2018-12-11T17:36:57.542Z,3.40
2018-12-11T17:39:26.002Z,4.10
2018-12-11T17:41:54.339Z,3.37
2018-12-11T17:44:22.655Z,3.10
2018-12-11T17:46:50.981Z,3.55
2018-12-11T17:49:19.508Z,3.25
2018-12-11T17:51:47.899Z,3.72
2018-12-11T17:54:16.173Z,4.08
2018-12-11T17:56:44.653Z,3.60
2018-12-11T17:59:13.389Z,3.70
2018-12-11T18:01:42.884Z,2.70
2018-12-11T18:04:11.252Z,3.08
2018-12-11T18:06:40.355Z,3.10
2018-12-11T18:09:09.097Z,3.00
2018-12-11T18:11:37.428Z,3.60
2018-12-11T18:14:05.750Z,3.30
2018-12-11T18:16:34.248Z,3.62
2018-12-11T18:19:02.551Z,3.40
2018-12-11T18:21:30.816Z,2.70
2018-12-11T18:24:00.255Z,3.02
2018-12-11T18:26:28.563Z,2.60
2018-12-11T18:28:56.827Z,2.65
2018-12-11T18:31:25.168Z,3.72
2018-12-11T18:33:53.815Z,2.72
2018-12-11T18:36:22.379Z,2.65
2018-12-11T18:38:50.773Z,3.33
2018-12-11T18:41:19.209Z,3.20
2018-12-11T18:43:47.570Z,3.72
2018-12-11T18:46:15.867Z,3.20
2018-12-11T18:48:44.373Z,3.87
2018-12-11T18:51:12.741Z,3.58
2018-12-11T18:53:41.266Z,2.75
2018-12-11T18:56:09.728Z,2.57
2018-12-11T18:58:38.057Z,3.15
2018-12-11T19:01:07.513Z,2.20
2018-12-11T19:03:36.071Z,4.92
2018-12-11T19:06:04.465Z,2.20
2018-12-11T19:08:32.836Z,4.10
2018-12-11T19:11:01.182Z,3.27
2018-12-11T19:13:29.730Z,2.87
2018-12-11T19:15:58.401Z,2.70
2018-12-11T19:18:26.869Z,2.65
2018-12-11T19:20:55.219Z,3.08
2018-12-11T19:23:33.106Z,2.87
2018-12-11T19:26:01.421Z,3.72
2018-12-11T19:28:29.821Z,3.00
2018-12-11T19:30:58.213Z,3.37
2018-12-11T19:33:26.753Z,3.00
2018-12-11T19:35:55.120Z,3.90
2018-12-11T19:38:24.406Z,3.15
2018-12-11T19:40:52.884Z,2.90
2018-12-11T19:43:22.213Z,3.60
2018-12-11T19:45:50.522Z,3.30
2018-12-11T19:48:20.261Z,3.60
2018-12-11T19:50:48.839Z,3.20
2018-12-11T19:53:17.159Z,3.80
2018-12-11T19:55:45.870Z,3.43
2018-12-11T19:58:14.258Z,3.20
2018-12-11T20:00:42.711Z,3.02
2018-12-11T20:03:12.558Z,2.77
2018-12-11T20:05:41.499Z,11.50
2018-12-11T20:08:09.892Z,7.00
2018-12-11T20:10:38.274Z,3.30
2018-12-11T20:13:06.618Z,3.00
2018-12-11T20:15:34.974Z,3.40
2018-12-11T20:18:03.441Z,2.40
2018-12-11T20:20:32.293Z,2.60
2018-12-11T20:23:01.532Z,4.20
2018-12-11T20:25:31.932Z,2.98
2018-12-11T20:28:00.300Z,12.47
2018-12-11T20:30:29.723Z,2.60
2018-12-11T20:32:58.205Z,3.60
2018-12-11T20:35:26.609Z,2.60
2018-12-11T20:37:55.287Z,2.67
2018-12-11T20:40:23.944Z,2.58
2018-12-11T20:42:53.376Z,3.33
2018-12-11T20:45:23.931Z,2.65
2018-12-11T20:47:52.724Z,2.70
2018-12-11T20:50:21.733Z,3.22
2018-12-11T20:52:50.138Z,3.08
2018-12-11T20:55:18.780Z,3.40
2018-12-11T20:57:47.163Z,4.20
2018-12-11T21:00:16.707Z,3.27
2018-12-11T21:02:45.052Z,3.72
2018-12-11T21:05:14.387Z,3.83
2018-12-11T21:07:43.046Z,3.60
2018-12-11T21:10:12.880Z,3.90
2018-12-11T21:12:41.297Z,3.60
2018-12-11T21:15:09.790Z,3.33
2018-12-11T21:17:39.232Z,3.10
2018-12-11T21:20:09.215Z,4.40
2018-12-11T21:22:38.889Z,3.47
2018-12-11T21:25:09.894Z,14.43
2018-12-11T21:27:38.685Z,5.53
2018-12-11T21:30:10.253Z,3.72
2018-12-11T21:32:39.810Z,3.42
2018-12-11T21:35:09.097Z,3.72
2018-12-11T21:37:39.285Z,4.72
2018-12-11T21:40:08.370Z,3.42
2018-12-11T21:42:36.897Z,3.22
2018-12-11T21:45:06.289Z,4.17
2018-12-11T21:47:34.933Z,2.80
2018-12-11T21:50:04.624Z,4.00
2018-12-11T21:52:33.149Z,5.28
2018-12-11T21:57:39.357Z,3.00
2018-12-11T22:00:10.993Z,3.50
2018-12-11T22:02:40.461Z,3.10
2018-12-11T22:05:09.328Z,3.98
2018-12-11T22:07:39.331Z,2.80
2018-12-11T22:10:09.450Z,2.60
2018-12-11T22:12:38.401Z,3.15
2018-12-11T22:15:07.153Z,6.40
2018-12-11T22:17:35.858Z,2.58
2018-12-11T22:20:06.312Z,2.83
2018-12-11T22:22:35.118Z,3.02
2018-12-11T22:25:03.546Z,3.05
2018-12-11T22:27:32.904Z,2.62
2018-12-11T22:30:03.115Z,3.80
2018-12-11T22:32:32.106Z,2.85
2018-12-11T22:35:01.203Z,2.95
2018-12-11T22:37:29.878Z,3.55
2018-12-11T22:39:58.904Z,3.43
2018-12-11T22:45:07.175Z,3.30
2018-12-11T22:47:37.837Z,2.90
2018-12-11T22:50:06.519Z,5.20
2018-12-11T22:52:34.834Z,3.52
2018-12-11T22:55:03.270Z,3.22
2018-12-11T22:57:33.449Z,4.97
2018-12-11T23:00:01.703Z,3.10
2018-12-11T23:02:31.438Z,3.50
2018-12-11T23:05:01.687Z,3.20
2018-12-11T23:07:30.081Z,2.40
2018-12-11T23:09:59.428Z,2.87
2018-12-11T23:12:30.024Z,3.80
2018-12-11T23:14:58.975Z,3.40
2018-12-11T23:17:27.201Z,2.92
2018-12-11T23:19:55.408Z,2.55
2018-12-11T23:22:28.437Z,2.62
2018-12-11T23:24:56.721Z,2.77
2018-12-11T23:27:25.079Z,2.85
2018-12-11T23:29:53.721Z,2.60
2018-12-11T23:32:22.060Z,3.75
2018-12-11T23:34:52.020Z,3.17
2018-12-11T23:37:20.403Z,2.50
2018-12-11T23:39:49.636Z,3.98
2018-12-11T23:42:18.308Z,2.22
2018-12-11T23:44:46.815Z,2.40
2018-12-11T23:47:15.253Z,2.98
2018-12-11T23:49:43.471Z,2.83
2018-12-11T23:52:11.769Z,2.33
2018-12-11T23:54:40.367Z,2.87
2018-12-11T23:57:08.686Z,2.80
2018-12-11T23:59:38.609Z,2.60
